Aviation Digital Data Service (ADDS)

Output produced by METARs form (0759 UTC 01 April 2015)
found at http://aviationweather.gov/adds/metars/
 
KATL 010734Z 0108/0212 27008KT 5SM -SHRA FEW025 BKN060 
     TEMPO 0108/0110 3SM -TSRA BKN025CB 
     FM011000 29005KT P6SM VCSH SCT015 BKN060 
     FM011200 29003KT P6SM SCT015 BKN050 
     FM011400 31005KT P6SM SCT045 
     FM011600 34007KT P6SM SCT045 
     FM012300 04006KT P6SM FEW050 
     FM020700 12007KT P6SM BKN010